Heyworth, IL (61745)

6:44 PM CST on February 13, 2016 (GMT -0600)
Hillside | | Change Station
CLOSE
Current Station
Personal Weather Station
Location: Heyworth, IL
Elevation: 761 ft
Nearby Weather Stations
Active Advisory: Winter Weather Advisory

Elev 761 ft 40.31 °N, 88.97 °W | Updated 22 seconds ago

Partly Cloudy
Partly Cloudy
17.1 °F
Feels Like 17 °F
N
0.0
Wind Variable Wind from NNE
Gusts 0.0 mph

Today
High -- | Low -- °F
--% Chance of Precip.
Yesterday
High -- | Low -- °F
Precip. -- in
Pressure 30.60 in
Visibility 10.0 miles
Clouds Clear
Windchill 17 °F
Dew Point 0 °F
Humidity 47%
Rainfall 0.00 in
Snow Depth Not available.
6:52 AM 5:28 PM
Waxing Crescent, 36% visible
METAR KBMI 132356Z 00000KT 10SM CLR M08/M18 A3050 RMK AO2 57015 T10831183 11061 21088 SLP360
Pressure 30.60 in
Visibility 10.0 miles
Clouds Clear
Windchill 17 °F
Dew Point 0 °F
Humidity 47%
Rainfall 0.00 in
Snow Depth Not available.
6:52 AM 5:28 PM
Waxing Crescent, 36% visible
METAR KBMI 132356Z 00000KT 10SM CLR M08/M18 A3050 RMK AO2 57015 T10831183 11061 21088 SLP360

10-Day Weather Forecast

Almanac

Astronomy

Feb. 13, 2016 Rise Set
Actual Time
Civil Twilight
Nautical Twilight
Astronomical Twilight
Moon
Length of Visible Light
Length of Day
Tomorrow will be .
, % of the Moon is Illuminated

Today's Extremes

State Highs State Lows

Community

WunderPhotos

Upload Photos

1,892,715 photos uploaded!

WunderBlog® & News

Nearby

Air Quality

  Air Quality AQ Index Pollutant
Not available.

Snow Depth

Station Depth Elevation

Earthquake Activity

City Distance Mag. Time & Date
Minimum magnitude displayed is 2.5.

Coastal Water Temperatures

Place Temperature

Stations

Nearby Weather Stations

Station Location Temp. Windchill Dew Point Humidity Wind Precip. Elev Updated Type
                   

Watches & Warnings

Winter Weather Advisory
Issued: 3:01 PM CST Feb. 13, 2016 – National Weather Service

... Winter Weather Advisory remains in effect from 3 am to 6 PM
CST Sunday...

* timing... snow developing across west central Illinois late this
evening and early overnight... and late tonight over east central
and southeast Illinois.

* Snow accumulations... 2 to 4 inches over most of the area with 4
to 5 inches along and northwest of the Illinois River by sunset
Sunday.

* Wind... southeast at 10 to 20 mph... with gusts of 20 to 25 mph
at times late tonight and Sunday.

* Main impact... hazardous travel conditions due to snow and low
visibilities down to a mile or less at times... as well as
blowing and drifting snow.

Precautionary/preparedness actions...

A Winter Weather Advisory for snow means that periods of snow
will cause primarily travel difficulties. Be prepared for snow
covered roads and limited visibilities... and use caution while
driving.



07